Time;durP1;ratioP1;P1;durP2;ratioP2;P2;SDS_P1;SDS_P2;PMS_P1;PMS_P2;Temp;Humidity;BMP_temperature;BMP_pressure;BME280_temperature;BME280_humidity;BME280_pressure;Samples;Min_cycle;Max_cycle;Signal;HPM_P1;HPM_P2
2024/01/20 00:00:53;;;;;;;12.20;4.90;;;;;;;;;;104076;1301;544980;-74
2024/01/20 00:04:31;;;;;;;16.30;5.80;;;;;;;;;;103788;1289;545506;-74
2024/01/20 00:08:08;;;;;;;18.40;6.30;;;;;;;;;;104081;1295;545088;-75
2024/01/20 00:11:46;;;;;;;21.20;7.30;;;;;;;;;;103693;1297;545235;-74
2024/01/20 00:15:23;;;;;;;25.50;9.10;;;;;;;;;;103666;1292;544988;-73
2024/01/20 00:19:01;;;;;;;28.10;9.70;;;;;;;;;;103329;1299;544837;-73
2024/01/20 00:22:38;;;;;;;20.40;7.50;;;;;;;;;;103702;1291;545005;-74
2024/01/20 00:26:21;;;;;;;20.90;7.20;;;;;;;;;;103956;1292;548102;-72
2024/01/20 00:29:53;;;;;;;21.90;7.90;;;;;;;;;;103313;1294;545070;-75
2024/01/20 00:33:31;;;;;;;18.10;7.10;;;;;;;;;;103726;1289;544934;-73
2024/01/20 00:37:10;;;;;;;16.20;5.30;;;;;;;;;;103686;1291;545245;-74
2024/01/20 00:41:01;;;;;;;17.90;6.20;;;;;;;;;;103579;1292;548074;-75
2024/01/20 00:44:23;;;;;;;18.00;6.20;;;;;;;;;;103703;1292;545013;-73
2024/01/20 00:48:00;;;;;;;18.10;6.80;;;;;;;;;;103691;1293;544926;-73
2024/01/20 00:51:38;;;;;;;11.90;4.90;;;;;;;;;;103724;1293;545570;-72
2024/01/20 00:55:15;;;;;;;12.30;3.40;;;;;;;;;;103725;1291;545860;-73
2024/01/20 00:58:53;;;;;;;9.80;3.20;;;;;;;;;;103767;1292;544893;-73
2024/01/20 01:02:36;;;;;;;11.20;3.70;;;;;;;;;;103439;1294;548169;-73
2024/01/20 01:06:08;;;;;;;12.10;3.80;;;;;;;;;;103651;1292;545689;-74
2024/01/20 01:09:44;;;;;;;14.60;4.80;;;;;;;;;;103707;1291;545253;-73
2024/01/20 01:13:22;;;;;;;12.40;4.20;;;;;;;;;;103710;1290;544920;-73
2024/01/20 01:17:00;;;;;;;11.90;3.40;;;;;;;;;;103682;1292;544778;-74
2024/01/20 01:20:37;;;;;;;12.50;3.30;;;;;;;;;;103645;1296;544931;-73
2024/01/20 01:24:15;;;;;;;13.80;4.30;;;;;;;;;;103717;1291;545080;-73
2024/01/20 01:27:52;;;;;;;12.50;4.20;;;;;;;;;;103704;1290;544805;-74
2024/01/20 01:31:30;;;;;;;14.00;5.10;;;;;;;;;;103371;1297;545486;-73
2024/01/20 01:35:04;;;;;;;14.20;5.00;;;;;;;;;;103772;1289;544755;-75
2024/01/20 01:38:45;;;;;;;11.00;4.00;;;;;;;;;;104644;1282;544767;-73
2024/01/20 01:42:28;;;;;;;10.30;3.70;;;;;;;;;;103537;1292;548466;-76
2024/01/20 01:45:59;;;;;;;11.10;3.70;;;;;;;;;;103688;1292;545640;-73
2024/01/20 01:49:37;;;;;;;12.10;3.90;;;;;;;;;;103860;1292;545453;-75
2024/01/20 01:53:15;;;;;;;10.40;3.00;;;;;;;;;;103692;1292;545598;-73
2024/01/20 01:56:54;;;;;;;10.50;3.30;;;;;;;;;;103728;1291;545587;-73
2024/01/20 02:00:30;;;;;;;12.10;3.50;;;;;;;;;;103839;1303;544769;-74
2024/01/20 02:04:08;;;;;;;13.00;3.40;;;;;;;;;;103504;1293;544830;-74
2024/01/20 02:07:47;;;;;;;11.20;4.70;;;;;;;;;;103553;1291;545113;-75
2024/01/20 02:11:24;;;;;;;11.60;3.50;;;;;;;;;;103773;1296;544782;-75
2024/01/20 02:15:00;;;;;;;10.00;3.30;;;;;;;;;;103864;1293;545038;-74
2024/01/20 02:18:33;;;;;;;10.40;3.80;;;;;;;;;;103830;1289;545005;-73
2024/01/20 02:22:16;;;;;;;12.10;3.70;;;;;;;;;;103664;1292;544980;-73
2024/01/20 02:25:53;;;;;;;9.80;3.20;;;;;;;;;;103708;1292;544901;-73
2024/01/20 02:29:29;;;;;;;9.50;2.90;;;;;;;;;;103806;1290;544804;-75
2024/01/20 02:33:43;;;;;;;7.70;3.00;;;;;;;;;;104792;1281;546666;-73
2024/01/20 02:36:44;;;;;;;10.80;3.40;;;;;;;;;;104108;1285;544808;-74
2024/01/20 02:40:22;;;;;;;9.70;3.60;;;;;;;;;;103744;1292;544817;-73
2024/01/20 02:43:59;;;;;;;10.10;2.60;;;;;;;;;;103776;1290;545161;-73
2024/01/20 02:47:37;;;;;;;10.60;3.20;;;;;;;;;;103639;1292;545340;-73
2024/01/20 02:51:14;;;;;;;10.90;3.20;;;;;;;;;;103895;1292;546055;-73
2024/01/20 02:54:52;;;;;;;8.10;3.00;;;;;;;;;;103748;1292;544783;-74
2024/01/20 02:58:29;;;;;;;9.50;3.00;;;;;;;;;;103685;1290;544591;-75
2024/01/20 03:02:03;;;;;;;9.40;2.70;;;;;;;;;;103856;1289;546035;-75
2024/01/20 03:05:44;;;;;;;7.50;2.70;;;;;;;;;;103778;1295;544922;-74
2024/01/20 03:09:21;;;;;;;11.90;2.90;;;;;;;;;;103714;1293;546150;-74
2024/01/20 03:12:59;;;;;;;8.70;2.70;;;;;;;;;;103725;1288;544802;-74
2024/01/20 03:16:42;;;;;;;7.30;2.50;;;;;;;;;;103609;1289;548529;-73
2024/01/20 03:20:11;;;;;;;9.60;2.80;;;;;;;;;;103762;1292;545005;-73
2024/01/20 03:23:53;;;;;;;10.50;3.90;;;;;;;;;;103626;1291;544970;-73
2024/01/20 03:27:28;;;;;;;10.10;3.00;;;;;;;;;;103733;1290;544940;-75
2024/01/20 03:31:06;;;;;;;8.60;3.00;;;;;;;;;;103653;1295;545807;-76
2024/01/20 03:34:43;;;;;;;10.00;3.00;;;;;;;;;;103818;1291;544809;-73
2024/01/20 03:38:20;;;;;;;11.30;4.20;;;;;;;;;;103318;1294;544816;-73
2024/01/20 03:41:58;;;;;;;10.00;3.00;;;;;;;;;;103831;1288;544829;-73
2024/01/20 03:45:37;;;;;;;10.90;3.20;;;;;;;;;;103855;1292;544868;-74
2024/01/20 03:49:13;;;;;;;11.20;2.90;;;;;;;;;;103764;1291;545186;-74
2024/01/20 03:52:51;;;;;;;8.70;2.40;;;;;;;;;;104116;1288;544953;-74
2024/01/20 03:56:28;;;;;;;10.50;2.50;;;;;;;;;;103719;1293;545719;-74
2024/01/20 04:00:06;;;;;;;7.20;2.40;;;;;;;;;;103878;1292;545638;-74
2024/01/20 04:03:43;;;;;;;9.10;2.50;;;;;;;;;;103726;1291;545701;-73
2024/01/20 04:07:21;;;;;;;9.70;3.00;;;;;;;;;;103820;1289;545286;-73
2024/01/20 04:10:57;;;;;;;10.70;3.50;;;;;;;;;;103817;1289;545030;-75
2024/01/20 04:14:35;;;;;;;9.90;3.40;;;;;;;;;;103840;1290;544630;-74
2024/01/20 04:18:13;;;;;;;8.60;2.40;;;;;;;;;;103721;1293;545492;-74
2024/01/20 04:21:56;;;;;;;9.10;2.70;;;;;;;;;;103444;1294;548173;-73
2024/01/20 04:25:28;;;;;;;8.60;2.50;;;;;;;;;;103691;1291;545000;-75
2024/01/20 04:29:05;;;;;;;8.30;2.80;;;;;;;;;;103676;1292;545473;-75
2024/01/20 04:32:43;;;;;;;8.30;2.80;;;;;;;;;;103766;1291;544798;-74
2024/01/20 04:36:20;;;;;;;8.90;2.90;;;;;;;;;;103777;1289;545352;-72
2024/01/20 04:39:59;;;;;;;8.80;2.40;;;;;;;;;;103716;1295;544922;-75
2024/01/20 04:43:35;;;;;;;8.80;2.60;;;;;;;;;;103725;1292;544985;-73
2024/01/20 04:47:09;;;;;;;7.80;2.40;;;;;;;;;;103933;1292;545293;-72
2024/01/20 04:50:50;;;;;;;8.10;2.80;;;;;;;;;;103665;1291;544777;-73
2024/01/20 04:54:27;;;;;;;10.20;3.60;;;;;;;;;;103688;1289;545066;-74
2024/01/20 04:58:05;;;;;;;8.90;3.20;;;;;;;;;;103730;1302;544831;-73
2024/01/20 05:01:42;;;;;;;10.90;4.20;;;;;;;;;;103724;1289;544728;-73
2024/01/20 05:05:20;;;;;;;13.60;5.80;;;;;;;;;;104087;1286;545453;-74
2024/01/20 05:09:04;;;;;;;18.00;8.90;;;;;;;;;;103639;1289;548002;-74
2024/01/20 05:12:35;;;;;;;16.80;8.40;;;;;;;;;;103785;1291;545299;-73
2024/01/20 05:16:12;;;;;;;12.80;5.70;;;;;;;;;;103694;1292;544999;-74
2024/01/20 05:19:49;;;;;;;11.90;4.80;;;;;;;;;;103778;1290;546349;-73
2024/01/20 05:23:27;;;;;;;10.30;3.30;;;;;;;;;;103352;1295;544829;-73
2024/01/20 05:27:05;;;;;;;8.50;3.00;;;;;;;;;;103735;1292;544797;-74
2024/01/20 05:30:39;;;;;;;11.20;4.50;;;;;;;;;;103629;1294;544661;-72
2024/01/20 05:34:20;;;;;;;14.30;6.80;;;;;;;;;;103645;1290;544774;-74
2024/01/20 05:37:57;;;;;;;15.00;6.40;;;;;;;;;;103789;1289;544753;-73
2024/01/20 05:41:35;;;;;;;24.00;7.80;;;;;;;;;;103764;1291;544908;-74
2024/01/20 05:45:14;;;;;;;26.80;9.20;;;;;;;;;;103811;1289;545723;-73
2024/01/20 05:48:46;;;;;;;14.40;6.00;;;;;;;;;;103833;1288;544946;-74
2024/01/20 05:52:27;;;;;;;14.80;5.60;;;;;;;;;;103719;1292;544726;-73
2024/01/20 05:56:04;;;;;;;12.70;6.00;;;;;;;;;;103717;1293;544802;-73
2024/01/20 05:59:42;;;;;;;11.80;5.90;;;;;;;;;;103463;1294;545662;-72
2024/01/20 06:03:20;;;;;;;14.00;6.50;;;;;;;;;;103711;1290;545030;-74
2024/01/20 06:07:02;;;;;;;11.60;5.20;;;;;;;;;;103564;1300;548107;-72
2024/01/20 06:10:35;;;;;;;13.00;6.50;;;;;;;;;;103711;1292;545578;-75
2024/01/20 06:14:08;;;;;;;13.20;5.90;;;;;;;;;;103867;1290;545675;-76
2024/01/20 06:17:49;;;;;;;11.60;5.80;;;;;;;;;;103639;1292;545072;-74
2024/01/20 06:21:27;;;;;;;15.10;6.10;;;;;;;;;;103771;1289;545652;-74
2024/01/20 06:25:04;;;;;;;13.40;6.10;;;;;;;;;;104437;1286;545394;-73
2024/01/20 06:28:41;;;;;;;15.50;7.70;;;;;;;;;;103826;1289;545399;-74
2024/01/20 06:32:19;;;;;;;18.60;9.70;;;;;;;;;;103702;1290;544986;-77
2024/01/20 06:35:56;;;;;;;21.40;11.20;;;;;;;;;;103711;1289;544961;-74
2024/01/20 06:39:34;;;;;;;15.50;8.80;;;;;;;;;;103679;1291;544868;-74
2024/01/20 06:43:11;;;;;;;14.90;8.10;;;;;;;;;;103737;1294;546194;-73
2024/01/20 06:46:49;;;;;;;13.80;8.00;;;;;;;;;;103761;1289;544896;-75
2024/01/20 06:50:26;;;;;;;15.00;7.40;;;;;;;;;;103728;1290;544958;-75
2024/01/20 06:54:04;;;;;;;15.50;7.90;;;;;;;;;;103676;1295;545598;-72
2024/01/20 06:57:37;;;;;;;14.90;7.10;;;;;;;;;;103745;1292;544780;-73
2024/01/20 07:01:25;;;;;;;13.90;7.20;;;;;;;;;;103611;1291;546226;-73
2024/01/20 07:04:56;;;;;;;19.50;10.60;;;;;;;;;;103753;1289;544982;-76
2024/01/20 07:08:34;;;;;;;18.20;10.00;;;;;;;;;;103828;1291;544752;-74
2024/01/20 07:12:11;;;;;;;16.50;7.70;;;;;;;;;;103785;1289;545442;-72
2024/01/20 07:15:49;;;;;;;15.20;6.60;;;;;;;;;;103733;1295;545013;-72
2024/01/20 07:19:26;;;;;;;15.40;6.90;;;;;;;;;;103414;1294;544956;-72
2024/01/20 07:23:10;;;;;;;14.70;7.50;;;;;;;;;;103596;1292;548043;-73
2024/01/20 07:26:41;;;;;;;16.20;8.60;;;;;;;;;;103798;1288;546630;-74
2024/01/20 07:30:18;;;;;;;21.90;8.70;;;;;;;;;;103789;1288;545114;-72
2024/01/20 07:33:55;;;;;;;16.10;7.30;;;;;;;;;;103735;1289;545514;-71
2024/01/20 07:37:30;;;;;;;14.40;7.10;;;;;;;;;;103955;1288;545001;-73
2024/01/20 07:41:11;;;;;;;22.40;11.00;;;;;;;;;;103700;1291;544771;-73
2024/01/20 07:44:48;;;;;;;16.80;8.20;;;;;;;;;;103724;1291;544823;-73
2024/01/20 07:48:27;;;;;;;16.80;9.20;;;;;;;;;;103762;1289;545066;-73
2024/01/20 07:52:03;;;;;;;13.60;7.20;;;;;;;;;;103716;1301;544974;-74
2024/01/20 07:55:41;;;;;;;14.20;7.10;;;;;;;;;;103543;1291;545475;-73
2024/01/20 07:59:18;;;;;;;15.30;7.30;;;;;;;;;;103695;1291;544967;-72
2024/01/20 08:02:55;;;;;;;14.80;7.60;;;;;;;;;;103739;1302;544942;-74
2024/01/20 08:06:35;;;;;;;14.70;7.40;;;;;;;;;;103719;1292;544765;-73
2024/01/20 08:10:10;;;;;;;14.40;7.50;;;;;;;;;;104768;1279;544933;-73
2024/01/20 08:13:48;;;;;;;13.40;7.30;;;;;;;;;;103789;1289;544842;-74
2024/01/20 08:17:25;;;;;;;15.60;8.20;;;;;;;;;;104106;1285;544818;-73
2024/01/20 08:21:03;;;;;;;16.90;9.30;;;;;;;;;;103747;1294;545218;-73
2024/01/20 08:24:40;;;;;;;16.30;8.70;;;;;;;;;;103772;1289;544720;-74
2024/01/20 08:28:18;;;;;;;19.20;9.40;;;;;;;;;;103788;1295;545037;-75
2024/01/20 08:31:55;;;;;;;18.40;9.40;;;;;;;;;;103603;1303;545085;-75
2024/01/20 08:35:33;;;;;;;17.30;9.50;;;;;;;;;;103744;1289;546484;-74
2024/01/20 08:39:10;;;;;;;14.10;7.60;;;;;;;;;;103782;1289;545101;-74
2024/01/20 08:42:48;;;;;;;16.10;8.80;;;;;;;;;;103689;1292;544751;-73
2024/01/20 08:46:25;;;;;;;16.50;7.80;;;;;;;;;;103724;1290;544967;-74
2024/01/20 08:50:03;;;;;;;17.10;8.20;;;;;;;;;;103726;1290;544915;-74
2024/01/20 08:53:40;;;;;;;15.50;8.00;;;;;;;;;;104194;1286;544821;-74
2024/01/20 08:57:18;;;;;;;16.90;8.60;;;;;;;;;;103854;1290;545201;-76
2024/01/20 09:01:01;;;;;;;17.80;9.60;;;;;;;;;;103463;1292;548102;-74
2024/01/20 09:04:32;;;;;;;16.10;8.20;;;;;;;;;;103695;1289;544791;-73
2024/01/20 09:08:10;;;;;;;21.20;10.40;;;;;;;;;;103796;1292;544772;-73
2024/01/20 09:11:49;;;;;;;27.70;13.00;;;;;;;;;;103632;1292;545163;-74
2024/01/20 09:15:25;;;;;;;30.20;12.20;;;;;;;;;;103802;1291;545045;-75
2024/01/20 09:18:58;;;;;;;25.60;11.00;;;;;;;;;;104607;1282;544855;-74
2024/01/20 09:22:39;;;;;;;17.80;7.70;;;;;;;;;;103763;1292;545007;-74
2024/01/20 09:26:17;;;;;;;17.60;6.50;;;;;;;;;;103588;1291;544796;-74
2024/01/20 09:29:56;;;;;;;12.70;5.90;;;;;;;;;;103628;1292;545116;-72
2024/01/20 09:33:32;;;;;;;10.20;4.70;;;;;;;;;;103715;1289;544794;-74
2024/01/20 09:37:09;;;;;;;12.70;5.60;;;;;;;;;;103795;1290;544920;-73
2024/01/20 09:40:47;;;;;;;11.70;5.30;;;;;;;;;;103680;1302;544994;-73
2024/01/20 09:44:25;;;;;;;14.00;5.60;;;;;;;;;;103749;1289;544932;-74
2024/01/20 09:48:03;;;;;;;11.70;5.80;;;;;;;;;;103628;1290;544786;-73
2024/01/20 09:52:00;;;;;;;19.50;8.50;;;;;;;;;;104030;1289;548191;-73
2024/01/20 09:55:18;;;;;;;23.70;11.50;;;;;;;;;;103691;1291;545070;-74
2024/01/20 09:58:58;;;;;;;21.60;11.70;;;;;;;;;;103691;1290;544766;-74
2024/01/20 10:02:33;;;;;;;25.00;12.60;;;;;;;;;;104099;1292;544874;-73
2024/01/20 10:06:09;;;;;;;25.10;12.20;;;;;;;;;;103683;1291;545042;-73
2024/01/20 10:09:46;;;;;;;23.20;13.90;;;;;;;;;;103678;1292;544776;-73
2024/01/20 10:13:24;;;;;;;41.70;29.90;;;;;;;;;;103743;1289;544922;-74
2024/01/20 10:17:02;;;;;;;59.70;32.20;;;;;;;;;;103667;1290;544814;-74
2024/01/20 10:20:39;;;;;;;59.20;37.40;;;;;;;;;;103705;1289;545001;-73
2024/01/20 10:24:23;;;;;;;38.80;22.80;;;;;;;;;;103796;1292;545430;-72
2024/01/20 10:27:53;;;;;;;42.70;23.50;;;;;;;;;;103738;1289;545970;-73
2024/01/20 10:31:31;;;;;;;37.90;20.30;;;;;;;;;;103609;1295;545799;-73
2024/01/20 10:35:09;;;;;;;31.10;15.70;;;;;;;;;;103773;1291;545339;-74
2024/01/20 10:38:49;;;;;;;28.80;16.00;;;;;;;;;;104309;1283;545327;-73
2024/01/20 10:42:30;;;;;;;27.80;14.90;;;;;;;;;;103692;1295;544880;-74
2024/01/20 10:46:05;;;;;;;22.50;13.40;;;;;;;;;;103805;1290;544950;-74
2024/01/20 10:49:42;;;;;;;22.70;12.20;;;;;;;;;;103828;1289;545065;-74
2024/01/20 10:53:17;;;;;;;17.90;10.50;;;;;;;;;;103719;1303;544737;-73
2024/01/20 10:56:54;;;;;;;18.60;11.00;;;;;;;;;;103667;1292;544813;-74
2024/01/20 11:00:32;;;;;;;14.90;8.90;;;;;;;;;;103677;1291;545123;-74
2024/01/20 11:04:18;;;;;;;15.80;9.00;;;;;;;;;;103579;1291;547875;-74
2024/01/20 11:07:56;;;;;;;19.30;10.60;;;;;;;;;;105873;1289;545202;-74
2024/01/20 11:11:27;;;;;;;17.60;9.00;;;;;;;;;;104546;1283;544983;-72
2024/01/20 11:14:57;;;;;;;15.20;8.50;;;;;;;;;;103838;1289;545494;-74
2024/01/20 11:18:38;;;;;;;17.10;8.80;;;;;;;;;;103671;1291;544807;-74
2024/01/20 11:22:32;;;;;;;14.60;7.90;;;;;;;;;;103652;1293;546047;-73
2024/01/20 11:25:54;;;;;;;16.10;8.40;;;;;;;;;;103737;1295;545371;-74
2024/01/20 11:29:31;;;;;;;18.50;10.80;;;;;;;;;;103679;1291;544970;-74
2024/01/20 11:33:11;;;;;;;15.00;8.90;;;;;;;;;;103801;1292;544958;-74
2024/01/20 11:36:48;;;;;;;13.90;7.50;;;;;;;;;;103715;1292;545437;-74
2024/01/20 11:40:23;;;;;;;15.00;8.30;;;;;;;;;;103685;1291;544967;-74
2024/01/20 11:44:00;;;;;;;19.40;10.90;;;;;;;;;;103707;1302;545520;-75
2024/01/20 11:47:38;;;;;;;13.70;5.90;;;;;;;;;;103814;1290;544798;-74
2024/01/20 11:51:16;;;;;;;10.50;4.20;;;;;;;;;;103631;1291;544809;-74
2024/01/20 11:54:49;;;;;;;9.30;4.10;;;;;;;;;;103916;1286;545494;-73
2024/01/20 11:58:31;;;;;;;8.50;3.80;;;;;;;;;;103842;1289;544950;-76
2024/01/20 12:02:08;;;;;;;9.60;3.50;;;;;;;;;;103680;1289;544884;-75
2024/01/20 12:05:46;;;;;;;7.90;3.30;;;;;;;;;;103688;1292;545461;-75
2024/01/20 12:09:23;;;;;;;6.90;3.00;;;;;;;;;;103779;1292;546037;-75
2024/01/20 12:12:59;;;;;;;9.40;3.00;;;;;;;;;;103742;1292;545536;-75
2024/01/20 12:16:38;;;;;;;7.30;3.00;;;;;;;;;;104049;1289;545039;-75
2024/01/20 12:20:16;;;;;;;8.50;3.50;;;;;;;;;;103745;1292;544910;-75
2024/01/20 12:23:53;;;;;;;9.10;4.10;;;;;;;;;;103605;1295;544979;-73
2024/01/20 12:27:31;;;;;;;9.90;4.80;;;;;;;;;;103841;1291;544769;-76
2024/01/20 12:31:08;;;;;;;8.80;3.40;;;;;;;;;;103773;1290;545810;-74
2024/01/20 12:34:47;;;;;;;11.50;6.30;;;;;;;;;;103727;1292;544800;-74
2024/01/20 12:38:23;;;;;;;10.20;5.20;;;;;;;;;;103707;1291;544986;-75
2024/01/20 12:42:00;;;;;;;10.00;5.30;;;;;;;;;;103737;1291;545459;-75
2024/01/20 12:45:38;;;;;;;9.80;3.90;;;;;;;;;;103653;1290;544894;-76
2024/01/20 12:49:21;;;;;;;10.50;5.20;;;;;;;;;;103573;1293;546000;-75
2024/01/20 12:52:49;;;;;;;10.90;5.50;;;;;;;;;;104165;1289;544965;-74
2024/01/20 12:56:36;;;;;;;13.50;6.80;;;;;;;;;;103426;1295;548046;-74
2024/01/20 13:00:09;;;;;;;12.80;5.60;;;;;;;;;;103675;1289;544804;-76
2024/01/20 13:03:45;;;;;;;9.90;4.30;;;;;;;;;;103672;1291;545026;-76
2024/01/20 13:07:23;;;;;;;25.90;13.70;;;;;;;;;;104576;1282;545279;-76
2024/01/20 13:11:02;;;;;;;25.20;14.50;;;;;;;;;;103631;1289;545309;-71
2024/01/20 13:14:37;;;;;;;18.70;10.20;;;;;;;;;;103757;1292;545926;-74
2024/01/20 13:18:16;;;;;;;12.40;6.30;;;;;;;;;;103772;1290;544935;-76
2024/01/20 13:21:48;;;;;;;34.40;18.80;;;;;;;;;;103844;1289;545504;-76
2024/01/20 13:25:31;;;;;;;34.70;20.30;;;;;;;;;;103756;1290;544806;-75
2024/01/20 13:29:07;;;;;;;26.40;16.90;;;;;;;;;;103670;1293;544823;-77
2024/01/20 13:32:45;;;;;;;74.30;30.80;;;;;;;;;;104085;1291;545693;-75
2024/01/20 13:36:21;;;;;;;12.30;6.40;;;;;;;;;;104065;1289;545609;-76
2024/01/20 13:40:00;;;;;;;10.50;5.10;;;;;;;;;;103706;1289;545438;-76
2024/01/20 13:43:37;;;;;;;9.20;3.80;;;;;;;;;;103706;1292;545259;-75
2024/01/20 13:47:14;;;;;;;8.60;4.00;;;;;;;;;;103768;1290;544757;-74
2024/01/20 13:50:52;;;;;;;12.60;6.10;;;;;;;;;;104079;1286;544952;-75
2024/01/20 13:54:29;;;;;;;13.10;5.90;;;;;;;;;;103670;1292;544783;-75
2024/01/20 13:58:07;;;;;;;49.70;19.70;;;;;;;;;;103725;1289;544795;-74
2024/01/20 14:01:45;;;;;;;20.60;10.80;;;;;;;;;;103783;1291;545773;-75
2024/01/20 14:05:18;;;;;;;69.40;38.40;;;;;;;;;;103713;1294;546097;-75
2024/01/20 14:08:55;;;;;;;39.10;21.80;;;;;;;;;;103803;1289;545642;-75
2024/01/20 14:12:37;;;;;;;16.40;6.30;;;;;;;;;;103766;1292;545032;-76
2024/01/20 14:16:16;;;;;;;27.00;12.60;;;;;;;;;;103733;1292;545777;-75
2024/01/20 14:19:52;;;;;;;50.70;20.40;;;;;;;;;;103708;1292;545755;-76
2024/01/20 14:23:26;;;;;;;63.40;23.60;;;;;;;;;;103719;1294;544741;-75
2024/01/20 14:27:06;;;;;;;15.40;8.30;;;;;;;;;;103704;1292;544963;-75
2024/01/20 14:30:44;;;;;;;16.10;6.40;;;;;;;;;;103731;1290;546029;-76
2024/01/20 14:34:21;;;;;;;17.60;9.80;;;;;;;;;;103694;1292;545182;-74
2024/01/20 14:38:08;;;;;;;61.70;29.00;;;;;;;;;;103781;1292;545410;-74
2024/01/20 14:41:37;;;;;;;24.40;14.50;;;;;;;;;;103687;1292;545228;-74
2024/01/20 14:45:15;;;;;;;65.90;28.20;;;;;;;;;;103722;1289;545716;-74
2024/01/20 14:48:51;;;;;;;20.40;9.60;;;;;;;;;;103708;1290;544967;-74
2024/01/20 14:52:29;;;;;;;65.10;26.00;;;;;;;;;;103819;1303;544979;-73
2024/01/20 14:56:03;;;;;;;80.10;27.50;;;;;;;;;;103889;1289;546040;-74
2024/01/20 14:59:44;;;;;;;70.20;26.90;;;;;;;;;;103861;1291;544993;-73
2024/01/20 15:03:27;;;;;;;28.30;15.50;;;;;;;;;;103548;1291;548027;-73
2024/01/20 15:07:00;;;;;;;22.60;12.30;;;;;;;;;;103671;1290;544925;-73
2024/01/20 15:10:36;;;;;;;17.90;9.20;;;;;;;;;;103848;1289;545473;-69
2024/01/20 15:14:15;;;;;;;15.80;8.30;;;;;;;;;;103954;1289;545455;-73
2024/01/20 15:17:51;;;;;;;11.60;6.20;;;;;;;;;;103697;1290;545599;-73
2024/01/20 15:21:28;;;;;;;9.90;4.60;;;;;;;;;;103740;1299;546046;-73
2024/01/20 15:25:06;;;;;;;11.30;5.80;;;;;;;;;;103752;1290;544772;-73
2024/01/20 15:28:44;;;;;;;26.60;14.50;;;;;;;;;;103732;1297;545590;-72
2024/01/20 15:32:17;;;;;;;13.80;7.00;;;;;;;;;;103867;1293;544791;-73
2024/01/20 15:35:59;;;;;;;44.80;23.20;;;;;;;;;;103713;1290;544792;-74
2024/01/20 15:39:36;;;;;;;51.50;24.80;;;;;;;;;;103795;1291;544830;-72
2024/01/20 15:43:13;;;;;;;74.20;34.00;;;;;;;;;;103861;1289;544989;-73
2024/01/20 15:46:56;;;;;;;58.10;28.90;;;;;;;;;;104376;1283;545942;-73
2024/01/20 15:50:29;;;;;;;41.90;18.90;;;;;;;;;;103697;1295;544766;-73
2024/01/20 15:54:06;;;;;;;28.70;13.10;;;;;;;;;;103876;1289;545614;-72
2024/01/20 15:57:44;;;;;;;54.60;26.20;;;;;;;;;;103755;1289;544818;-72
2024/01/20 16:01:20;;;;;;;41.80;19.90;;;;;;;;;;103861;1292;544876;-73
2024/01/20 16:05:03;;;;;;;135.60;42.40;;;;;;;;;;103811;1288;548128;-73
2024/01/20 16:08:35;;;;;;;21.30;10.30;;;;;;;;;;103711;1297;545332;-73
2024/01/20 16:12:14;;;;;;;42.50;20.80;;;;;;;;;;104021;1287;544819;-73
2024/01/20 16:15:51;;;;;;;13.00;6.70;;;;;;;;;;103783;1290;545537;-72
2024/01/20 16:19:29;;;;;;;11.50;5.50;;;;;;;;;;103836;1289;545011;-72
2024/01/20 16:23:06;;;;;;;11.90;5.60;;;;;;;;;;103801;1289;545462;-72
2024/01/20 16:26:44;;;;;;;12.00;5.10;;;;;;;;;;104005;1291;546044;-72
2024/01/20 16:30:21;;;;;;;13.40;6.20;;;;;;;;;;104413;1284;545147;-73
2024/01/20 16:33:55;;;;;;;12.90;6.70;;;;;;;;;;103887;1293;545647;-72
2024/01/20 16:37:37;;;;;;;14.40;5.90;;;;;;;;;;103699;1288;545071;-72
2024/01/20 16:41:19;;;;;;;12.70;5.90;;;;;;;;;;103627;1303;545368;-71
2024/01/20 16:44:50;;;;;;;13.70;6.80;;;;;;;;;;103740;1291;545046;-72
2024/01/20 16:48:28;;;;;;;14.70;6.90;;;;;;;;;;103790;1288;546297;-71
2024/01/20 16:52:12;;;;;;;17.90;8.70;;;;;;;;;;103524;1302;547811;-73
2024/01/20 16:55:43;;;;;;;25.50;19.40;;;;;;;;;;103737;1291;545140;-73
2024/01/20 16:59:16;;;;;;;24.20;13.30;;;;;;;;;;103880;1292;544960;-72
2024/01/20 17:02:59;;;;;;;28.70;14.40;;;;;;;;;;103859;1289;544891;-73
2024/01/20 17:06:35;;;;;;;18.70;10.30;;;;;;;;;;103763;1289;544761;-73
2024/01/20 17:10:13;;;;;;;16.40;7.90;;;;;;;;;;103785;1292;545517;-73
2024/01/20 17:13:53;;;;;;;19.70;9.50;;;;;;;;;;103679;1292;545012;-71
2024/01/20 17:17:29;;;;;;;13.40;6.90;;;;;;;;;;103776;1289;545037;-72
2024/01/20 17:21:12;;;;;;;17.90;8.60;;;;;;;;;;103839;1289;545158;-72
2024/01/20 17:24:42;;;;;;;15.60;8.00;;;;;;;;;;103816;1291;544771;-72
2024/01/20 17:28:20;;;;;;;14.70;7.70;;;;;;;;;;104115;1289;544996;-72
2024/01/20 17:32:00;;;;;;;20.20;9.20;;;;;;;;;;103919;1289;545713;-71
2024/01/20 17:35:37;;;;;;;30.40;13.80;;;;;;;;;;103655;1292;545080;-73
2024/01/20 17:39:12;;;;;;;18.70;10.20;;;;;;;;;;103732;1291;545732;-72
2024/01/20 17:42:52;;;;;;;14.40;7.50;;;;;;;;;;103837;1289;547993;-73
2024/01/20 17:46:28;;;;;;;31.70;20.10;;;;;;;;;;103865;1291;544985;-72
2024/01/20 17:50:06;;;;;;;39.80;17.50;;;;;;;;;;103650;1296;544745;-73
2024/01/20 17:53:38;;;;;;;25.80;12.90;;;;;;;;;;104056;1289;544903;-72
2024/01/20 17:57:19;;;;;;;23.30;15.20;;;;;;;;;;103806;1292;546180;-71
2024/01/20 18:00:54;;;;;;;19.20;10.60;;;;;;;;;;103898;1289;544825;-72
2024/01/20 18:04:35;;;;;;;32.40;16.60;;;;;;;;;;103845;1292;545744;-72
2024/01/20 18:08:12;;;;;;;104.80;42.00;;;;;;;;;;103857;1289;545669;-71
2024/01/20 18:11:52;;;;;;;39.20;19.20;;;;;;;;;;103595;1291;545427;-72
2024/01/20 18:15:27;;;;;;;18.40;10.60;;;;;;;;;;103705;1290;544769;-71
2024/01/20 18:19:04;;;;;;;14.90;8.40;;;;;;;;;;103785;1292;545013;-72
2024/01/20 18:22:42;;;;;;;15.70;8.70;;;;;;;;;;103769;1296;545493;-71
2024/01/20 18:26:19;;;;;;;13.70;7.00;;;;;;;;;;103798;1288;545007;-72
2024/01/20 18:29:57;;;;;;;13.60;6.90;;;;;;;;;;103939;1289;545030;-72
2024/01/20 18:33:37;;;;;;;15.60;9.00;;;;;;;;;;103791;1288;545074;-73
2024/01/20 18:37:13;;;;;;;15.50;6.80;;;;;;;;;;103742;1290;545659;-72
2024/01/20 18:40:49;;;;;;;17.00;7.40;;;;;;;;;;103605;1292;545069;-73
2024/01/20 18:44:33;;;;;;;25.10;9.20;;;;;;;;;;103671;1292;547861;-71
2024/01/20 18:48:04;;;;;;;46.30;14.50;;;;;;;;;;103852;1289;546253;-71
2024/01/20 18:51:42;;;;;;;39.50;13.30;;;;;;;;;;103823;1289;544922;-72
2024/01/20 18:55:20;;;;;;;63.20;21.50;;;;;;;;;;103758;1291;545375;-73
2024/01/20 18:58:57;;;;;;;16.70;6.40;;;;;;;;;;103818;1291;544811;-72
2024/01/20 19:02:34;;;;;;;41.90;14.90;;;;;;;;;;103940;1289;545118;-73
2024/01/20 19:06:12;;;;;;;37.10;14.30;;;;;;;;;;103918;1298;544932;-73
2024/01/20 19:09:49;;;;;;;36.60;15.90;;;;;;;;;;103721;1293;545225;-72
2024/01/20 19:13:23;;;;;;;31.20;14.70;;;;;;;;;;103927;1289;544712;-71
2024/01/20 19:17:04;;;;;;;17.20;7.10;;;;;;;;;;104547;1282;544738;-71
2024/01/20 19:20:40;;;;;;;13.90;5.80;;;;;;;;;;104218;1286;544958;-72
2024/01/20 19:24:20;;;;;;;18.90;11.60;;;;;;;;;;103766;1290;544896;-72
2024/01/20 19:27:56;;;;;;;15.40;8.30;;;;;;;;;;103555;1291;545253;-71
2024/01/20 19:31:35;;;;;;;14.20;7.00;;;;;;;;;;103723;1293;545313;-72
2024/01/20 19:35:11;;;;;;;13.60;7.20;;;;;;;;;;103735;1291;546095;-72
2024/01/20 19:38:51;;;;;;;15.00;8.60;;;;;;;;;;103441;1306;545092;-71
2024/01/20 19:42:26;;;;;;;13.10;6.50;;;;;;;;;;103638;1291;545076;-71
2024/01/20 19:46:04;;;;;;;15.60;9.70;;;;;;;;;;103766;1289;544950;-72
2024/01/20 19:49:42;;;;;;;13.60;5.60;;;;;;;;;;103828;1292;544998;-72
2024/01/20 19:53:19;;;;;;;15.30;6.60;;;;;;;;;;103644;1291;544998;-72
2024/01/20 19:56:54;;;;;;;15.30;5.90;;;;;;;;;;103866;1288;544841;-71
2024/01/20 20:00:33;;;;;;;13.10;6.30;;;;;;;;;;103720;1292;544904;-72
2024/01/20 20:04:15;;;;;;;13.30;5.90;;;;;;;;;;103728;1292;545111;-72
2024/01/20 20:07:49;;;;;;;12.30;5.90;;;;;;;;;;103696;1295;545248;-72
2024/01/20 20:11:26;;;;;;;16.10;7.00;;;;;;;;;;103673;1292;544977;-71
2024/01/20 20:15:09;;;;;;;15.20;7.00;;;;;;;;;;103487;1291;547863;-72
2024/01/20 20:18:42;;;;;;;16.00;6.10;;;;;;;;;;103757;1296;545393;-72
2024/01/20 20:22:14;;;;;;;13.40;5.70;;;;;;;;;;103959;1289;544826;-72
2024/01/20 20:25:57;;;;;;;15.30;6.00;;;;;;;;;;103724;1294;545781;-72
2024/01/20 20:29:34;;;;;;;14.80;5.80;;;;;;;;;;103782;1289;545817;-72
2024/01/20 20:33:12;;;;;;;13.30;5.80;;;;;;;;;;104256;1286;545079;-71
2024/01/20 20:36:56;;;;;;;19.10;8.20;;;;;;;;;;103886;1291;548112;-71
2024/01/20 20:40:26;;;;;;;12.30;6.10;;;;;;;;;;103860;1292;545383;-72
2024/01/20 20:44:03;;;;;;;16.20;6.60;;;;;;;;;;103735;1292;546313;-72